sensor_id;sensor_type;location;lat;lon;timestamp;P1;durP1;ratioP1;P2;durP2;ratioP2
12076;SDS011;12420;42.676;23.262;2023-07-31T00:01:45;3.40;;;3.20;;
12076;SDS011;12420;42.676;23.262;2023-07-31T00:04:12;3.20;;;3.00;;
12076;SDS011;12420;42.676;23.262;2023-07-31T00:06:40;3.23;;;2.97;;
12076;SDS011;12420;42.676;23.262;2023-07-31T00:09:07;3.33;;;3.10;;
12076;SDS011;12420;42.676;23.262;2023-07-31T00:11:35;3.10;;;2.90;;
12076;SDS011;12420;42.676;23.262;2023-07-31T00:14:03;3.53;;;3.33;;
12076;SDS011;12420;42.676;23.262;2023-07-31T00:16:30;3.50;;;3.20;;
12076;SDS011;12420;42.676;23.262;2023-07-31T00:18:57;3.73;;;3.50;;
12076;SDS011;12420;42.676;23.262;2023-07-31T00:21:23;3.37;;;3.20;;
12076;SDS011;12420;42.676;23.262;2023-07-31T00:23:52;3.63;;;3.43;;
12076;SDS011;12420;42.676;23.262;2023-07-31T00:26:18;3.73;;;3.43;;
12076;SDS011;12420;42.676;23.262;2023-07-31T00:28:45;4.20;;;3.80;;
12076;SDS011;12420;42.676;23.262;2023-07-31T00:31:12;4.37;;;4.07;;
12076;SDS011;12420;42.676;23.262;2023-07-31T00:33:39;4.60;;;4.00;;
12076;SDS011;12420;42.676;23.262;2023-07-31T00:36:05;4.10;;;3.87;;
12076;SDS011;12420;42.676;23.262;2023-07-31T00:38:32;4.47;;;4.20;;
12076;SDS011;12420;42.676;23.262;2023-07-31T00:41:00;4.83;;;4.43;;
12076;SDS011;12420;42.676;23.262;2023-07-31T00:43:27;4.70;;;4.40;;
12076;SDS011;12420;42.676;23.262;2023-07-31T00:45:54;5.13;;;4.83;;
12076;SDS011;12420;42.676;23.262;2023-07-31T00:48:21;5.33;;;5.03;;
12076;SDS011;12420;42.676;23.262;2023-07-31T00:50:49;5.53;;;5.13;;
12076;SDS011;12420;42.676;23.262;2023-07-31T00:53:18;5.37;;;5.07;;
12076;SDS011;12420;42.676;23.262;2023-07-31T00:55:46;6.20;;;5.60;;
12076;SDS011;12420;42.676;23.262;2023-07-31T00:58:17;6.27;;;5.77;;
12076;SDS011;12420;42.676;23.262;2023-07-31T01:00:44;6.03;;;5.63;;
12076;SDS011;12420;42.676;23.262;2023-07-31T01:03:11;7.53;;;6.77;;
12076;SDS011;12420;42.676;23.262;2023-07-31T01:05:39;8.00;;;7.30;;
12076;SDS011;12420;42.676;23.262;2023-07-31T01:08:15;9.33;;;8.63;;
12076;SDS011;12420;42.676;23.262;2023-07-31T01:10:50;10.60;;;9.80;;
12076;SDS011;12420;42.676;23.262;2023-07-31T01:13:26;10.60;;;9.80;;
12076;SDS011;12420;42.676;23.262;2023-07-31T01:15:54;11.07;;;10.27;;
12076;SDS011;12420;42.676;23.262;2023-07-31T01:18:21;11.50;;;10.60;;
12076;SDS011;12420;42.676;23.262;2023-07-31T01:20:51;12.20;;;11.10;;
12076;SDS011;12420;42.676;23.262;2023-07-31T01:23:33;11.03;;;10.13;;
12076;SDS011;12420;42.676;23.262;2023-07-31T01:26:07;13.03;;;12.03;;
12076;SDS011;12420;42.676;23.262;2023-07-31T01:28:47;15.27;;;13.87;;
12076;SDS011;12420;42.676;23.262;2023-07-31T01:31:24;16.17;;;14.80;;
12076;SDS011;12420;42.676;23.262;2023-07-31T01:33:53;16.00;;;14.60;;
12076;SDS011;12420;42.676;23.262;2023-07-31T01:36:22;16.60;;;15.10;;
12076;SDS011;12420;42.676;23.262;2023-07-31T01:38:49;17.27;;;15.87;;
12076;SDS011;12420;42.676;23.262;2023-07-31T01:41:18;15.83;;;14.50;;
12076;SDS011;12420;42.676;23.262;2023-07-31T01:43:45;17.50;;;15.93;;
12076;SDS011;12420;42.676;23.262;2023-07-31T01:46:12;19.27;;;17.67;;
12076;SDS011;12420;42.676;23.262;2023-07-31T01:48:39;17.97;;;16.30;;
12076;SDS011;12420;42.676;23.262;2023-07-31T01:51:06;20.27;;;18.50;;
12076;SDS011;12420;42.676;23.262;2023-07-31T01:53:32;20.07;;;18.37;;
12076;SDS011;12420;42.676;23.262;2023-07-31T01:55:59;19.83;;;18.20;;
12076;SDS011;12420;42.676;23.262;2023-07-31T01:58:27;19.80;;;18.10;;
12076;SDS011;12420;42.676;23.262;2023-07-31T02:00:54;20.27;;;18.53;;
12076;SDS011;12420;42.676;23.262;2023-07-31T02:03:21;19.47;;;17.87;;
12076;SDS011;12420;42.676;23.262;2023-07-31T02:05:49;18.97;;;17.07;;
12076;SDS011;12420;42.676;23.262;2023-07-31T02:08:16;20.53;;;18.73;;
12076;SDS011;12420;42.676;23.262;2023-07-31T02:10:43;21.73;;;19.80;;
12076;SDS011;12420;42.676;23.262;2023-07-31T02:13:10;20.50;;;18.77;;
12076;SDS011;12420;42.676;23.262;2023-07-31T02:15:38;21.33;;;19.43;;
12076;SDS011;12420;42.676;23.262;2023-07-31T02:18:05;20.97;;;19.17;;
12076;SDS011;12420;42.676;23.262;2023-07-31T02:20:33;20.67;;;18.87;;
12076;SDS011;12420;42.676;23.262;2023-07-31T02:23:00;20.53;;;18.77;;
12076;SDS011;12420;42.676;23.262;2023-07-31T02:25:27;20.47;;;18.77;;
12076;SDS011;12420;42.676;23.262;2023-07-31T02:27:54;20.53;;;18.73;;
12076;SDS011;12420;42.676;23.262;2023-07-31T02:30:21;19.53;;;17.87;;
12076;SDS011;12420;42.676;23.262;2023-07-31T02:32:49;20.13;;;18.53;;
12076;SDS011;12420;42.676;23.262;2023-07-31T02:35:16;19.07;;;17.47;;
12076;SDS011;12420;42.676;23.262;2023-07-31T02:37:43;19.10;;;17.50;;
12076;SDS011;12420;42.676;23.262;2023-07-31T02:40:10;19.77;;;18.17;;
12076;SDS011;12420;42.676;23.262;2023-07-31T02:42:38;20.00;;;18.20;;
12076;SDS011;12420;42.676;23.262;2023-07-31T02:45:05;18.77;;;17.03;;
12076;SDS011;12420;42.676;23.262;2023-07-31T02:47:32;19.27;;;17.60;;
12076;SDS011;12420;42.676;23.262;2023-07-31T02:50:01;19.10;;;17.30;;
12076;SDS011;12420;42.676;23.262;2023-07-31T02:52:28;18.93;;;17.33;;
12076;SDS011;12420;42.676;23.262;2023-07-31T02:54:54;19.47;;;17.63;;
12076;SDS011;12420;42.676;23.262;2023-07-31T02:57:21;21.80;;;17.83;;
12076;SDS011;12420;42.676;23.262;2023-07-31T02:59:48;19.43;;;17.83;;
12076;SDS011;12420;42.676;23.262;2023-07-31T03:02:15;19.77;;;18.07;;
12076;SDS011;12420;42.676;23.262;2023-07-31T03:04:41;20.23;;;18.50;;
12076;SDS011;12420;42.676;23.262;2023-07-31T03:07:10;21.37;;;19.50;;
12076;SDS011;12420;42.676;23.262;2023-07-31T03:09:36;20.60;;;18.87;;
12076;SDS011;12420;42.676;23.262;2023-07-31T03:12:03;21.87;;;19.97;;
12076;SDS011;12420;42.676;23.262;2023-07-31T03:14:31;21.17;;;19.37;;
12076;SDS011;12420;42.676;23.262;2023-07-31T03:16:57;22.23;;;20.07;;
12076;SDS011;12420;42.676;23.262;2023-07-31T03:19:25;21.00;;;19.20;;
12076;SDS011;12420;42.676;23.262;2023-07-31T03:21:52;20.70;;;18.77;;
12076;SDS011;12420;42.676;23.262;2023-07-31T03:24:20;21.30;;;19.40;;
12076;SDS011;12420;42.676;23.262;2023-07-31T03:26:47;20.63;;;18.83;;
12076;SDS011;12420;42.676;23.262;2023-07-31T03:29:13;20.77;;;18.97;;
12076;SDS011;12420;42.676;23.262;2023-07-31T03:31:40;21.33;;;19.43;;
12076;SDS011;12420;42.676;23.262;2023-07-31T03:34:07;21.23;;;19.43;;
12076;SDS011;12420;42.676;23.262;2023-07-31T03:36:33;21.53;;;19.53;;
12076;SDS011;12420;42.676;23.262;2023-07-31T03:39:00;20.83;;;18.73;;
12076;SDS011;12420;42.676;23.262;2023-07-31T03:41:28;21.20;;;19.40;;
12076;SDS011;12420;42.676;23.262;2023-07-31T03:43:55;21.03;;;19.13;;
12076;SDS011;12420;42.676;23.262;2023-07-31T03:46:22;20.27;;;18.33;;
12076;SDS011;12420;42.676;23.262;2023-07-31T03:48:49;22.03;;;19.93;;
12076;SDS011;12420;42.676;23.262;2023-07-31T03:51:16;22.27;;;20.27;;
12076;SDS011;12420;42.676;23.262;2023-07-31T03:53:43;22.70;;;20.50;;
12076;SDS011;12420;42.676;23.262;2023-07-31T03:56:10;23.47;;;21.33;;
12076;SDS011;12420;42.676;23.262;2023-07-31T03:58:38;22.83;;;20.63;;
12076;SDS011;12420;42.676;23.262;2023-07-31T04:01:05;23.83;;;21.43;;
12076;SDS011;12420;42.676;23.262;2023-07-31T04:03:32;23.70;;;21.30;;
12076;SDS011;12420;42.676;23.262;2023-07-31T04:05:59;23.17;;;21.07;;
12076;SDS011;12420;42.676;23.262;2023-07-31T04:08:26;23.10;;;20.90;;
12076;SDS011;12420;42.676;23.262;2023-07-31T04:10:52;23.07;;;20.97;;
12076;SDS011;12420;42.676;23.262;2023-07-31T04:13:21;23.30;;;21.10;;
12076;SDS011;12420;42.676;23.262;2023-07-31T04:15:50;23.50;;;21.40;;
12076;SDS011;12420;42.676;23.262;2023-07-31T04:18:19;23.70;;;21.47;;
12076;SDS011;12420;42.676;23.262;2023-07-31T04:20:46;23.57;;;21.23;;
12076;SDS011;12420;42.676;23.262;2023-07-31T04:23:13;23.83;;;21.63;;
12076;SDS011;12420;42.676;23.262;2023-07-31T04:25:40;23.87;;;21.53;;
12076;SDS011;12420;42.676;23.262;2023-07-31T04:28:06;23.27;;;20.97;;
12076;SDS011;12420;42.676;23.262;2023-07-31T04:30:33;22.33;;;20.23;;
12076;SDS011;12420;42.676;23.262;2023-07-31T04:33:03;22.30;;;20.20;;
12076;SDS011;12420;42.676;23.262;2023-07-31T04:35:29;22.73;;;20.70;;
12076;SDS011;12420;42.676;23.262;2023-07-31T04:37:56;22.90;;;20.60;;
12076;SDS011;12420;42.676;23.262;2023-07-31T04:40:23;22.00;;;20.03;;
12076;SDS011;12420;42.676;23.262;2023-07-31T04:42:50;21.93;;;19.93;;
12076;SDS011;12420;42.676;23.262;2023-07-31T04:45:16;21.00;;;18.90;;
12076;SDS011;12420;42.676;23.262;2023-07-31T04:47:43;22.90;;;20.40;;
12076;SDS011;12420;42.676;23.262;2023-07-31T04:50:11;20.57;;;18.73;;
12076;SDS011;12420;42.676;23.262;2023-07-31T04:52:39;23.13;;;19.80;;
12076;SDS011;12420;42.676;23.262;2023-07-31T04:55:06;19.53;;;17.73;;
12076;SDS011;12420;42.676;23.262;2023-07-31T04:57:33;19.63;;;17.83;;
12076;SDS011;12420;42.676;23.262;2023-07-31T04:59:59;19.97;;;18.00;;
12076;SDS011;12420;42.676;23.262;2023-07-31T05:02:26;19.83;;;18.03;;
12076;SDS011;12420;42.676;23.262;2023-07-31T05:04:53;17.93;;;16.33;;
12076;SDS011;12420;42.676;23.262;2023-07-31T05:07:21;19.37;;;17.67;;
12076;SDS011;12420;42.676;23.262;2023-07-31T05:09:48;19.13;;;17.43;;
12076;SDS011;12420;42.676;23.262;2023-07-31T05:12:14;19.57;;;17.67;;
12076;SDS011;12420;42.676;23.262;2023-07-31T05:14:41;17.80;;;16.30;;
12076;SDS011;12420;42.676;23.262;2023-07-31T05:17:08;17.57;;;16.13;;
12076;SDS011;12420;42.676;23.262;2023-07-31T05:19:35;17.17;;;15.67;;
12076;SDS011;12420;42.676;23.262;2023-07-31T05:22:01;16.37;;;15.00;;
12076;SDS011;12420;42.676;23.262;2023-07-31T05:24:30;15.70;;;14.37;;
12076;SDS011;12420;42.676;23.262;2023-07-31T05:26:56;16.03;;;14.53;;
12076;SDS011;12420;42.676;23.262;2023-07-31T05:29:23;14.63;;;13.43;;
12076;SDS011;12420;42.676;23.262;2023-07-31T05:31:50;14.60;;;13.17;;
12076;SDS011;12420;42.676;23.262;2023-07-31T05:34:17;13.63;;;12.33;;
12076;SDS011;12420;42.676;23.262;2023-07-31T05:36:43;11.97;;;10.87;;
12076;SDS011;12420;42.676;23.262;2023-07-31T05:39:10;11.03;;;10.13;;
12076;SDS011;12420;42.676;23.262;2023-07-31T05:41:39;10.73;;;9.83;;
12076;SDS011;12420;42.676;23.262;2023-07-31T05:44:05;9.90;;;9.00;;
12076;SDS011;12420;42.676;23.262;2023-07-31T05:46:32;9.53;;;8.83;;
12076;SDS011;12420;42.676;23.262;2023-07-31T05:48:59;8.67;;;7.93;;
12076;SDS011;12420;42.676;23.262;2023-07-31T05:51:26;8.10;;;7.50;;
12076;SDS011;12420;42.676;23.262;2023-07-31T05:53:53;8.37;;;7.77;;
12076;SDS011;12420;42.676;23.262;2023-07-31T05:56:20;8.20;;;7.60;;
12076;SDS011;12420;42.676;23.262;2023-07-31T05:58:48;6.90;;;6.30;;
12076;SDS011;12420;42.676;23.262;2023-07-31T06:01:15;7.67;;;7.07;;
12076;SDS011;12420;42.676;23.262;2023-07-31T06:03:42;7.33;;;6.73;;
12076;SDS011;12420;42.676;23.262;2023-07-31T06:06:09;6.60;;;6.00;;
12076;SDS011;12420;42.676;23.262;2023-07-31T06:08:36;6.70;;;6.10;;
12076;SDS011;12420;42.676;23.262;2023-07-31T06:11:03;5.93;;;5.33;;
12076;SDS011;12420;42.676;23.262;2023-07-31T06:13:30;5.57;;;5.17;;
12076;SDS011;12420;42.676;23.262;2023-07-31T06:16:00;17.43;;;4.90;;
12076;SDS011;12420;42.676;23.262;2023-07-31T06:18:30;5.10;;;4.60;;
12076;SDS011;12420;42.676;23.262;2023-07-31T06:20:57;6.10;;;4.93;;
12076;SDS011;12420;42.676;23.262;2023-07-31T06:23:24;5.10;;;4.70;;
12076;SDS011;12420;42.676;23.262;2023-07-31T06:25:50;7.27;;;5.10;;
12076;SDS011;12420;42.676;23.262;2023-07-31T06:28:17;5.20;;;4.80;;
12076;SDS011;12420;42.676;23.262;2023-07-31T06:30:44;7.50;;;4.93;;
12076;SDS011;12420;42.676;23.262;2023-07-31T06:33:12;5.17;;;4.77;;
12076;SDS011;12420;42.676;23.262;2023-07-31T06:35:39;5.10;;;4.70;;
12076;SDS011;12420;42.676;23.262;2023-07-31T06:38:06;5.53;;;5.00;;
12076;SDS011;12420;42.676;23.262;2023-07-31T06:40:32;4.77;;;4.43;;
12076;SDS011;12420;42.676;23.262;2023-07-31T06:42:59;4.80;;;4.40;;
12076;SDS011;12420;42.676;23.262;2023-07-31T06:45:31;6.93;;;4.10;;
12076;SDS011;12420;42.676;23.262;2023-07-31T06:47:58;4.40;;;4.00;;
12076;SDS011;12420;42.676;23.262;2023-07-31T06:50:29;4.63;;;3.77;;
12076;SDS011;12420;42.676;23.262;2023-07-31T06:52:56;4.23;;;3.93;;
12076;SDS011;12420;42.676;23.262;2023-07-31T06:55:23;3.93;;;3.57;;
12076;SDS011;12420;42.676;23.262;2023-07-31T06:57:51;4.10;;;3.70;;
12076;SDS011;12420;42.676;23.262;2023-07-31T07:00:20;4.05;;;3.60;;
12076;SDS011;12420;42.676;23.262;2023-07-31T07:02:47;3.90;;;3.60;;
12076;SDS011;12420;42.676;23.262;2023-07-31T07:05:15;3.67;;;3.47;;
12076;SDS011;12420;42.676;23.262;2023-07-31T07:07:44;3.60;;;3.30;;
12076;SDS011;12420;42.676;23.262;2023-07-31T07:10:11;3.70;;;3.50;;
12076;SDS011;12420;42.676;23.262;2023-07-31T07:12:38;5.93;;;3.70;;
12076;SDS011;12420;42.676;23.262;2023-07-31T07:15:05;3.30;;;3.10;;
12076;SDS011;12420;42.676;23.262;2023-07-31T07:17:32;3.20;;;3.00;;
12076;SDS011;12420;42.676;23.262;2023-07-31T07:20:00;4.20;;;3.03;;
12076;SDS011;12420;42.676;23.262;2023-07-31T07:22:28;3.43;;;3.07;;
12076;SDS011;12420;42.676;23.262;2023-07-31T07:24:57;2.87;;;2.73;;
12076;SDS011;12420;42.676;23.262;2023-07-31T07:27:23;4.37;;;3.20;;
12076;SDS011;12420;42.676;23.262;2023-07-31T07:29:50;3.07;;;2.90;;
12076;SDS011;12420;42.676;23.262;2023-07-31T07:32:18;3.03;;;2.83;;
12076;SDS011;12420;42.676;23.262;2023-07-31T07:34:45;3.47;;;3.17;;
12076;SDS011;12420;42.676;23.262;2023-07-31T07:37:13;2.93;;;2.80;;
12076;SDS011;12420;42.676;23.262;2023-07-31T07:39:40;3.17;;;2.97;;
12076;SDS011;12420;42.676;23.262;2023-07-31T07:42:09;4.60;;;3.30;;
12076;SDS011;12420;42.676;23.262;2023-07-31T07:44:36;3.47;;;2.90;;
12076;SDS011;12420;42.676;23.262;2023-07-31T07:47:03;3.80;;;3.47;;
12076;SDS011;12420;42.676;23.262;2023-07-31T07:49:31;4.60;;;3.10;;
12076;SDS011;12420;42.676;23.262;2023-07-31T07:51:59;3.40;;;3.20;;
12076;SDS011;12420;42.676;23.262;2023-07-31T07:54:26;3.20;;;2.90;;
12076;SDS011;12420;42.676;23.262;2023-07-31T07:56:52;3.00;;;2.80;;
12076;SDS011;12420;42.676;23.262;2023-07-31T07:59:22;2.97;;;2.77;;
12076;SDS011;12420;42.676;23.262;2023-07-31T08:01:49;3.10;;;2.90;;
12076;SDS011;12420;42.676;23.262;2023-07-31T08:04:18;3.23;;;3.03;;
12076;SDS011;12420;42.676;23.262;2023-07-31T08:06:45;3.10;;;2.87;;
12076;SDS011;12420;42.676;23.262;2023-07-31T08:09:11;3.13;;;2.83;;
12076;SDS011;12420;42.676;23.262;2023-07-31T08:11:38;3.10;;;2.90;;
12076;SDS011;12420;42.676;23.262;2023-07-31T08:14:05;2.60;;;2.50;;
12076;SDS011;12420;42.676;23.262;2023-07-31T08:16:33;3.45;;;2.65;;
12076;SDS011;12420;42.676;23.262;2023-07-31T08:19:00;2.57;;;2.37;;
12076;SDS011;12420;42.676;23.262;2023-07-31T08:21:26;3.40;;;3.03;;
12076;SDS011;12420;42.676;23.262;2023-07-31T08:23:53;3.75;;;3.13;;
12076;SDS011;12420;42.676;23.262;2023-07-31T08:26:20;3.15;;;2.90;;
12076;SDS011;12420;42.676;23.262;2023-07-31T08:28:47;3.47;;;2.72;;
12076;SDS011;12420;42.676;23.262;2023-07-31T08:31:14;3.00;;;2.80;;
12076;SDS011;12420;42.676;23.262;2023-07-31T08:33:45;3.10;;;2.90;;
12076;SDS011;12420;42.676;23.262;2023-07-31T08:36:11;3.30;;;3.00;;
12076;SDS011;12420;42.676;23.262;2023-07-31T08:38:38;3.15;;;2.92;;
12076;SDS011;12420;42.676;23.262;2023-07-31T08:41:05;3.10;;;2.90;;
12076;SDS011;12420;42.676;23.262;2023-07-31T08:43:32;3.15;;;2.97;;
12076;SDS011;12420;42.676;23.262;2023-07-31T08:46:00;3.00;;;2.80;;
12076;SDS011;12420;42.676;23.262;2023-07-31T08:48:28;2.85;;;2.63;;
12076;SDS011;12420;42.676;23.262;2023-07-31T08:50:58;2.70;;;2.60;;
12076;SDS011;12420;42.676;23.262;2023-07-31T08:53:25;3.17;;;2.95;;
12076;SDS011;12420;42.676;23.262;2023-07-31T08:55:52;3.50;;;2.50;;
12076;SDS011;12420;42.676;23.262;2023-07-31T08:58:19;2.50;;;2.38;;
12076;SDS011;12420;42.676;23.262;2023-07-31T09:00:47;2.93;;;2.73;;
12076;SDS011;12420;42.676;23.262;2023-07-31T09:03:15;2.67;;;2.58;;
12076;SDS011;12420;42.676;23.262;2023-07-31T09:05:43;2.63;;;2.53;;
12076;SDS011;12420;42.676;23.262;2023-07-31T09:08:15;2.65;;;2.55;;
12076;SDS011;12420;42.676;23.262;2023-07-31T09:10:45;2.53;;;2.40;;
12076;SDS011;12420;42.676;23.262;2023-07-31T09:13:15;2.53;;;2.42;;
12076;SDS011;12420;42.676;23.262;2023-07-31T09:15:42;2.70;;;2.50;;
12076;SDS011;12420;42.676;23.262;2023-07-31T09:18:10;4.80;;;2.70;;
12076;SDS011;12420;42.676;23.262;2023-07-31T09:20:39;3.08;;;2.88;;
12076;SDS011;12420;42.676;23.262;2023-07-31T09:23:06;3.08;;;2.80;;
12076;SDS011;12420;42.676;23.262;2023-07-31T09:25:37;3.50;;;3.00;;
12076;SDS011;12420;42.676;23.262;2023-07-31T09:28:06;3.83;;;2.80;;
12076;SDS011;12420;42.676;23.262;2023-07-31T09:30:43;2.95;;;2.72;;
12076;SDS011;12420;42.676;23.262;2023-07-31T09:33:12;3.20;;;2.90;;
12076;SDS011;12420;42.676;23.262;2023-07-31T09:35:38;3.10;;;2.90;;
12076;SDS011;12420;42.676;23.262;2023-07-31T09:38:07;3.05;;;2.85;;
12076;SDS011;12420;42.676;23.262;2023-07-31T09:40:37;2.80;;;2.67;;
12076;SDS011;12420;42.676;23.262;2023-07-31T09:43:05;3.00;;;2.80;;
12076;SDS011;12420;42.676;23.262;2023-07-31T09:45:33;2.45;;;2.35;;
12076;SDS011;12420;42.676;23.262;2023-07-31T09:48:01;4.70;;;2.53;;
12076;SDS011;12420;42.676;23.262;2023-07-31T09:50:29;2.97;;;2.78;;
12076;SDS011;12420;42.676;23.262;2023-07-31T09:52:56;5.53;;;2.90;;
12076;SDS011;12420;42.676;23.262;2023-07-31T09:55:24;2.45;;;2.35;;
12076;SDS011;12420;42.676;23.262;2023-07-31T09:57:53;2.30;;;2.10;;
12076;SDS011;12420;42.676;23.262;2023-07-31T10:00:23;2.60;;;2.40;;
12076;SDS011;12420;42.676;23.262;2023-07-31T10:02:53;3.58;;;2.30;;
12076;SDS011;12420;42.676;23.262;2023-07-31T10:05:24;2.45;;;2.35;;
12076;SDS011;12420;42.676;23.262;2023-07-31T10:07:57;2.50;;;2.10;;
12076;SDS011;12420;42.676;23.262;2023-07-31T10:10:24;2.45;;;2.28;;
12076;SDS011;12420;42.676;23.262;2023-07-31T10:12:54;2.25;;;2.15;;
12076;SDS011;12420;42.676;23.262;2023-07-31T10:15:23;3.72;;;2.35;;
12076;SDS011;12420;42.676;23.262;2023-07-31T10:17:51;2.47;;;2.38;;
12076;SDS011;12420;42.676;23.262;2023-07-31T10:20:19;2.65;;;2.30;;
12076;SDS011;12420;42.676;23.262;2023-07-31T10:22:47;2.30;;;2.20;;
12076;SDS011;12420;42.676;23.262;2023-07-31T10:25:15;3.13;;;2.58;;
12076;SDS011;12420;42.676;23.262;2023-07-31T10:27:43;3.72;;;2.40;;
12076;SDS011;12420;42.676;23.262;2023-07-31T10:30:15;3.05;;;2.10;;
12076;SDS011;12420;42.676;23.262;2023-07-31T10:32:45;3.53;;;2.30;;
12076;SDS011;12420;42.676;23.262;2023-07-31T10:35:15;2.55;;;2.40;;
12076;SDS011;12420;42.676;23.262;2023-07-31T10:37:43;2.30;;;2.20;;
12076;SDS011;12420;42.676;23.262;2023-07-31T10:40:11;2.00;;;1.90;;
12076;SDS011;12420;42.676;23.262;2023-07-31T10:42:44;2.17;;;1.90;;
12076;SDS011;12420;42.676;23.262;2023-07-31T10:45:23;2.30;;;2.20;;
12076;SDS011;12420;42.676;23.262;2023-07-31T10:47:59;1.83;;;1.73;;
12076;SDS011;12420;42.676;23.262;2023-07-31T10:50:27;2.33;;;2.22;;
12076;SDS011;12420;42.676;23.262;2023-07-31T10:52:55;1.90;;;1.80;;
12076;SDS011;12420;42.676;23.262;2023-07-31T10:55:29;2.30;;;2.13;;
12076;SDS011;12420;42.676;23.262;2023-07-31T10:57:58;2.10;;;2.00;;
12076;SDS011;12420;42.676;23.262;2023-07-31T11:00:34;2.00;;;1.88;;
12076;SDS011;12420;42.676;23.262;2023-07-31T11:03:03;1.98;;;1.88;;
12076;SDS011;12420;42.676;23.262;2023-07-31T11:05:45;2.53;;;1.90;;
12076;SDS011;12420;42.676;23.262;2023-07-31T11:08:13;4.05;;;2.05;;
12076;SDS011;12420;42.676;23.262;2023-07-31T11:10:41;1.63;;;1.63;;
12076;SDS011;12420;42.676;23.262;2023-07-31T11:13:09;1.70;;;1.70;;
12076;SDS011;12420;42.676;23.262;2023-07-31T11:15:38;1.90;;;1.80;;
12076;SDS011;12420;42.676;23.262;2023-07-31T11:18:05;2.55;;;2.08;;
12076;SDS011;12420;42.676;23.262;2023-07-31T11:20:36;2.85;;;1.90;;
12076;SDS011;12420;42.676;23.262;2023-07-31T11:23:06;2.30;;;1.80;;
12076;SDS011;12420;42.676;23.262;2023-07-31T11:25:34;2.70;;;1.95;;
12076;SDS011;12420;42.676;23.262;2023-07-31T11:28:05;2.10;;;2.00;;
12076;SDS011;12420;42.676;23.262;2023-07-31T11:30:33;2.08;;;1.98;;
12076;SDS011;12420;42.676;23.262;2023-07-31T11:33:05;3.10;;;2.17;;
12076;SDS011;12420;42.676;23.262;2023-07-31T11:35:33;2.80;;;2.30;;
12076;SDS011;12420;42.676;23.262;2023-07-31T11:38:02;4.15;;;2.30;;
12076;SDS011;12420;42.676;23.262;2023-07-31T11:40:29;2.58;;;1.95;;
12076;SDS011;12420;42.676;23.262;2023-07-31T11:42:56;3.70;;;2.47;;
12076;SDS011;12420;42.676;23.262;2023-07-31T11:45:24;3.95;;;2.70;;
12076;SDS011;12420;42.676;23.262;2023-07-31T11:47:53;2.80;;;2.70;;
12076;SDS011;12420;42.676;23.262;2023-07-31T11:50:22;3.78;;;2.33;;
12076;SDS011;12420;42.676;23.262;2023-07-31T11:52:52;2.75;;;2.65;;
12076;SDS011;12420;42.676;23.262;2023-07-31T11:55:21;2.60;;;2.50;;
12076;SDS011;12420;42.676;23.262;2023-07-31T11:57:50;3.10;;;2.90;;
12076;SDS011;12420;42.676;23.262;2023-07-31T12:00:18;2.85;;;2.70;;
12076;SDS011;12420;42.676;23.262;2023-07-31T12:02:45;2.85;;;2.75;;
12076;SDS011;12420;42.676;23.262;2023-07-31T12:05:13;3.85;;;3.55;;
12076;SDS011;12420;42.676;23.262;2023-07-31T12:07:49;4.07;;;3.72;;
12076;SDS011;12420;42.676;23.262;2023-07-31T12:10:26;3.88;;;3.67;;
12076;SDS011;12420;42.676;23.262;2023-07-31T12:12:55;6.30;;;4.43;;
12076;SDS011;12420;42.676;23.262;2023-07-31T12:15:32;5.82;;;5.25;;
12076;SDS011;12420;42.676;23.262;2023-07-31T12:18:00;6.18;;;5.38;;
12076;SDS011;12420;42.676;23.262;2023-07-31T12:20:30;5.47;;;5.07;;
12076;SDS011;12420;42.676;23.262;2023-07-31T12:23:00;6.13;;;5.28;;
12076;SDS011;12420;42.676;23.262;2023-07-31T12:25:31;5.10;;;4.80;;
12076;SDS011;12420;42.676;23.262;2023-07-31T12:28:03;4.95;;;4.63;;
12076;SDS011;12420;42.676;23.262;2023-07-31T12:30:37;4.93;;;4.63;;
12076;SDS011;12420;42.676;23.262;2023-07-31T12:33:05;5.40;;;4.90;;
12076;SDS011;12420;42.676;23.262;2023-07-31T12:35:40;5.65;;;5.00;;
12076;SDS011;12420;42.676;23.262;2023-07-31T12:38:11;5.25;;;4.90;;
12076;SDS011;12420;42.676;23.262;2023-07-31T12:40:38;5.93;;;5.45;;
12076;SDS011;12420;42.676;23.262;2023-07-31T12:43:06;4.93;;;4.63;;
12076;SDS011;12420;42.676;23.262;2023-07-31T12:45:33;5.10;;;4.72;;
12076;SDS011;12420;42.676;23.262;2023-07-31T12:48:00;5.00;;;4.70;;
12076;SDS011;12420;42.676;23.262;2023-07-31T12:50:28;5.35;;;5.05;;
12076;SDS011;12420;42.676;23.262;2023-07-31T12:52:54;5.30;;;4.90;;
12076;SDS011;12420;42.676;23.262;2023-07-31T12:55:24;4.97;;;4.47;;
12076;SDS011;12420;42.676;23.262;2023-07-31T12:57:51;5.32;;;5.03;;
12076;SDS011;12420;42.676;23.262;2023-07-31T13:00:18;6.00;;;4.90;;
12076;SDS011;12420;42.676;23.262;2023-07-31T13:02:45;5.60;;;5.28;;
12076;SDS011;12420;42.676;23.262;2023-07-31T13:05:12;6.05;;;5.43;;
12076;SDS011;12420;42.676;23.262;2023-07-31T13:07:40;6.57;;;5.97;;
12076;SDS011;12420;42.676;23.262;2023-07-31T13:10:07;5.88;;;5.13;;
12076;SDS011;12420;42.676;23.262;2023-07-31T13:12:37;5.82;;;5.32;;
12076;SDS011;12420;42.676;23.262;2023-07-31T13:15:04;5.30;;;4.85;;
12076;SDS011;12420;42.676;23.262;2023-07-31T13:17:32;7.15;;;4.80;;
12076;SDS011;12420;42.676;23.262;2023-07-31T13:19:59;5.22;;;4.82;;
12076;SDS011;12420;42.676;23.262;2023-07-31T13:22:27;5.07;;;4.63;;
12076;SDS011;12420;42.676;23.262;2023-07-31T13:24:54;4.80;;;4.35;;
12076;SDS011;12420;42.676;23.262;2023-07-31T13:27:21;4.57;;;4.28;;
12076;SDS011;12420;42.676;23.262;2023-07-31T13:29:51;4.60;;;4.00;;
12076;SDS011;12420;42.676;23.262;2023-07-31T13:32:18;4.20;;;3.90;;
12076;SDS011;12420;42.676;23.262;2023-07-31T13:34:48;4.40;;;4.00;;
12076;SDS011;12420;42.676;23.262;2023-07-31T13:37:15;4.40;;;4.00;;
12076;SDS011;12420;42.676;23.262;2023-07-31T13:39:42;5.00;;;4.57;;
12076;SDS011;12420;42.676;23.262;2023-07-31T13:42:09;4.90;;;4.25;;
12076;SDS011;12420;42.676;23.262;2023-07-31T13:44:37;4.50;;;4.20;;
12076;SDS011;12420;42.676;23.262;2023-07-31T13:47:06;4.03;;;3.83;;
12076;SDS011;12420;42.676;23.262;2023-07-31T13:49:33;4.38;;;4.03;;
12076;SDS011;12420;42.676;23.262;2023-07-31T13:52:00;5.40;;;4.00;;
12076;SDS011;12420;42.676;23.262;2023-07-31T13:54:27;3.97;;;3.60;;
12076;SDS011;12420;42.676;23.262;2023-07-31T13:56:56;4.00;;;3.80;;
12076;SDS011;12420;42.676;23.262;2023-07-31T13:59:23;4.20;;;4.00;;
12076;SDS011;12420;42.676;23.262;2023-07-31T14:01:50;8.95;;;4.78;;
12076;SDS011;12420;42.676;23.262;2023-07-31T14:04:18;5.95;;;4.60;;
12076;SDS011;12420;42.676;23.262;2023-07-31T14:06:45;6.07;;;4.20;;
12076;SDS011;12420;42.676;23.262;2023-07-31T14:09:13;4.20;;;3.97;;
12076;SDS011;12420;42.676;23.262;2023-07-31T14:11:40;4.30;;;4.00;;
12076;SDS011;12420;42.676;23.262;2023-07-31T14:14:08;3.90;;;3.60;;
12076;SDS011;12420;42.676;23.262;2023-07-31T14:16:35;4.10;;;3.90;;
12076;SDS011;12420;42.676;23.262;2023-07-31T14:19:02;3.65;;;3.45;;
12076;SDS011;12420;42.676;23.262;2023-07-31T14:21:31;3.63;;;3.45;;
12076;SDS011;12420;42.676;23.262;2023-07-31T14:23:57;3.80;;;3.50;;
12076;SDS011;12420;42.676;23.262;2023-07-31T14:26:27;3.63;;;3.33;;
12076;SDS011;12420;42.676;23.262;2023-07-31T14:28:54;4.40;;;3.60;;
12076;SDS011;12420;42.676;23.262;2023-07-31T14:31:20;3.78;;;3.50;;